createdAt,value
2023-03-19T00:03:02.538Z,101168.53
2023-03-19T00:07:59.096Z,101181.47
2023-03-19T00:12:55.662Z,101187.97
2023-03-19T00:17:52.410Z,101185.31
2023-03-19T00:22:48.845Z,101190.50
2023-03-19T00:27:45.301Z,101187.75
2023-03-19T00:32:42.071Z,101206.66
2023-03-19T00:37:38.614Z,101205.34
2023-03-19T00:42:35.062Z,101198.47
2023-03-19T00:47:32.114Z,101208.94
2023-03-19T00:52:28.490Z,101205.78
2023-03-19T00:57:25.129Z,101209.31
2023-03-19T01:02:21.563Z,101220.16
2023-03-19T01:07:17.973Z,101223.63
2023-03-19T01:12:14.411Z,101217.94
2023-03-19T01:17:10.895Z,101220.78
2023-03-19T01:22:07.571Z,101226.84
2023-03-19T01:27:05.077Z,101218.75
2023-03-19T01:32:01.831Z,101219.41
2023-03-19T01:36:58.286Z,101217.28
2023-03-19T01:41:54.667Z,101222.75
2023-03-19T01:46:51.451Z,101211.53
2023-03-19T01:51:48.380Z,101216.13
2023-03-19T01:56:48.734Z,101218.47
2023-03-19T02:01:56.806Z,101222.31
2023-03-19T02:06:56.235Z,101207.13
2023-03-19T02:11:53.415Z,101204.56
2023-03-19T02:16:49.972Z,101213.28
2023-03-19T02:21:46.694Z,101217.16
2023-03-19T02:26:45.238Z,101207.91
2023-03-19T02:31:41.678Z,101216.25
2023-03-19T02:36:44.271Z,101211.50
2023-03-19T02:41:41.972Z,101211.06
2023-03-19T02:46:38.628Z,101208.75
2023-03-19T02:51:35.738Z,101216.16
2023-03-19T02:56:35.741Z,101225.56
2023-03-19T03:01:32.260Z,101226.47
2023-03-19T03:06:28.656Z,101214.81
2023-03-19T03:11:25.513Z,101218.13
2023-03-19T03:16:22.660Z,101222.53
2023-03-19T03:21:21.233Z,101216.28
2023-03-19T03:26:17.700Z,101223.13
2023-03-19T03:31:14.383Z,101218.22
2023-03-19T03:36:11.117Z,101227.50
2023-03-19T03:41:10.263Z,101222.41
2023-03-19T03:46:08.558Z,101228.06
2023-03-19T03:51:05.275Z,101213.47
2023-03-19T03:56:02.376Z,101213.47
2023-03-19T04:00:58.800Z,101213.47
2023-03-19T04:05:55.224Z,101215.16
2023-03-19T04:10:51.682Z,101216.22
2023-03-19T04:15:48.610Z,101205.13
2023-03-19T04:20:45.036Z,101218.41
2023-03-19T04:25:41.467Z,101227.69
2023-03-19T04:30:38.353Z,101221.66
2023-03-19T04:35:35.126Z,101224.97
2023-03-19T04:40:31.708Z,101215.19
2023-03-19T04:45:28.264Z,101223.88
2023-03-19T04:50:24.964Z,101225.72
2023-03-19T04:55:21.438Z,101226.78
2023-03-19T05:00:18.187Z,101233.63
2023-03-19T05:05:14.611Z,101234.34
2023-03-19T05:10:11.849Z,101226.59
2023-03-19T05:15:08.870Z,101233.09
2023-03-19T05:20:05.719Z,101240.13
2023-03-19T05:25:02.543Z,101246.09
2023-03-19T05:30:00.151Z,101239.19
2023-03-19T05:34:56.630Z,101240.53
2023-03-19T05:39:53.048Z,101233.81
2023-03-19T05:44:49.855Z,101228.97
2023-03-19T05:49:46.312Z,101237.13
2023-03-19T05:54:42.775Z,101241.25
2023-03-19T05:59:39.204Z,101236.31
2023-03-19T06:04:35.629Z,101243.97
2023-03-19T06:09:32.076Z,101242.50
2023-03-19T06:14:28.468Z,101259.06
2023-03-19T06:19:24.926Z,101270.34
2023-03-19T06:24:21.379Z,101269.75
2023-03-19T06:29:17.915Z,101268.88
2023-03-19T06:34:14.309Z,101270.09
2023-03-19T06:39:10.771Z,101268.81
2023-03-19T06:44:07.356Z,101274.22
2023-03-19T06:49:03.936Z,101283.38
2023-03-19T06:54:00.345Z,101278.78
2023-03-19T06:58:56.825Z,101290.59
2023-03-19T07:03:53.328Z,101287.63
2023-03-19T07:08:49.889Z,101289.81
2023-03-19T07:13:46.586Z,101288.44
2023-03-19T07:18:43.020Z,101290.69
2023-03-19T07:23:40.410Z,101294.25
2023-03-19T07:28:36.973Z,101296.13
2023-03-19T07:33:33.638Z,101284.19
2023-03-19T07:38:30.414Z,101286.81
2023-03-19T07:43:26.847Z,101289.53
2023-03-19T07:48:23.256Z,101293.09
2023-03-19T07:53:20.452Z,101294.06
2023-03-19T07:58:17.013Z,101286.34
2023-03-19T08:03:13.772Z,101282.56
2023-03-19T08:08:10.219Z,101281.22
2023-03-19T08:13:06.787Z,101282.50
2023-03-19T08:18:04.920Z,101291.28
2023-03-19T08:23:01.669Z,101286.09
2023-03-19T08:27:59.366Z,101280.19
2023-03-19T08:32:56.399Z,101276.81
2023-03-19T08:37:53.554Z,101276.34
2023-03-19T08:42:51.007Z,101274.81
2023-03-19T08:47:47.880Z,101284.25
2023-03-19T08:52:44.438Z,101279.25
2023-03-19T08:57:40.872Z,101287.63
2023-03-19T09:02:37.329Z,101292.75
2023-03-19T09:07:33.771Z,101297.50
2023-03-19T09:12:32.765Z,101290.47
2023-03-19T09:17:29.404Z,101284.00
2023-03-19T09:22:26.224Z,101291.53
2023-03-19T09:27:23.424Z,101279.00
2023-03-19T09:32:20.086Z,101274.88
2023-03-19T09:37:16.588Z,101272.50
2023-03-19T09:42:31.728Z,101277.38
2023-03-19T09:47:32.665Z,101284.84
2023-03-19T09:52:41.537Z,101271.50
2023-03-19T09:57:38.933Z,101270.22
2023-03-19T10:02:43.611Z,101265.41
2023-03-19T10:08:05.634Z,101267.94
2023-03-19T10:13:23.792Z,101268.63
2023-03-19T10:18:36.014Z,101269.97
2023-03-19T10:23:53.063Z,101267.69
2023-03-19T10:29:03.352Z,101271.59
2023-03-19T10:34:15.190Z,101266.47
2023-03-19T10:39:15.393Z,101265.94
2023-03-19T10:44:28.458Z,101249.59
2023-03-19T10:49:25.330Z,101235.06
2023-03-19T10:54:26.653Z,101244.25
2023-03-19T10:59:25.302Z,101238.91
2023-03-19T11:04:23.014Z,101236.31
2023-03-19T11:09:32.725Z,101244.63
2023-03-19T11:14:36.474Z,101243.66
2023-03-19T11:19:40.985Z,101249.41
2023-03-19T11:24:42.310Z,101248.69
2023-03-19T11:29:44.304Z,101234.94
2023-03-19T11:34:59.444Z,101234.03
2023-03-19T11:40:40.146Z,101239.06
2023-03-19T11:46:05.437Z,101236.22
2023-03-19T11:51:05.477Z,101237.00
2023-03-19T11:56:33.223Z,101241.50
2023-03-19T12:01:49.089Z,101239.06
2023-03-19T12:06:54.486Z,101240.25
2023-03-19T12:12:17.410Z,101243.63
2023-03-19T12:17:34.233Z,101243.06
2023-03-19T12:22:48.640Z,101246.88
2023-03-19T12:28:16.169Z,101255.25
2023-03-19T12:33:36.547Z,101250.69
2023-03-19T12:38:48.259Z,101261.22
2023-03-19T12:43:49.786Z,101255.59
2023-03-19T12:49:18.455Z,101255.88
2023-03-19T12:54:22.716Z,101261.25
2023-03-19T12:59:37.411Z,101262.41
2023-03-19T13:04:42.960Z,101244.84
2023-03-19T13:09:45.006Z,101259.22
2023-03-19T13:14:53.399Z,101256.16
2023-03-19T13:19:54.142Z,101256.66
2023-03-19T13:24:53.426Z,101252.06
2023-03-19T13:30:09.344Z,101258.56
2023-03-19T13:35:31.622Z,101258.56
2023-03-19T13:40:56.483Z,101246.69
2023-03-19T13:46:05.821Z,101246.59
2023-03-19T13:51:04.368Z,101254.75
2023-03-19T13:56:05.745Z,101250.31
2023-03-19T14:01:06.864Z,101251.78
2023-03-19T14:06:03.719Z,101270.31
2023-03-19T14:11:03.522Z,101325.13
2023-03-19T14:16:06.247Z,101348.09
2023-03-19T14:21:08.880Z,101361.59
2023-03-19T14:26:23.171Z,101361.84
2023-03-19T14:31:32.841Z,101370.94
2023-03-19T14:36:30.782Z,101368.81
2023-03-19T14:41:32.614Z,101378.06
2023-03-19T14:46:41.735Z,101385.22
2023-03-19T14:51:51.104Z,101389.94
2023-03-19T14:56:48.049Z,101394.66
2023-03-19T15:01:49.413Z,101402.56
2023-03-19T15:06:59.004Z,101400.91
2023-03-19T15:12:10.266Z,101403.66
2023-03-19T15:17:16.023Z,101407.00
2023-03-19T15:22:15.632Z,101411.13
2023-03-19T15:27:23.784Z,101402.84
2023-03-19T15:33:09.115Z,101366.00
2023-03-19T15:38:00.170Z,101358.69
2023-03-19T15:43:00.606Z,101365.66
2023-03-19T15:48:16.442Z,101367.50
2023-03-19T15:53:19.165Z,101359.50
2023-03-19T15:58:26.029Z,101370.38
2023-03-19T16:03:28.200Z,101373.22
2023-03-19T16:08:28.712Z,101371.81
2023-03-19T16:13:38.498Z,101375.34
2023-03-19T16:19:02.451Z,101364.75
2023-03-19T16:24:02.620Z,101351.44
2023-03-19T16:29:34.101Z,101349.22
2023-03-19T16:34:46.747Z,101354.00
2023-03-19T16:39:54.522Z,101370.88
2023-03-19T16:44:51.030Z,101374.63
2023-03-19T16:49:47.886Z,101382.09
2023-03-19T16:54:44.852Z,101395.56
2023-03-19T16:59:42.578Z,101401.09
2023-03-19T17:04:39.297Z,101405.63
2023-03-19T17:09:36.676Z,101422.31
2023-03-19T17:14:34.544Z,101415.72
2023-03-19T17:19:35.848Z,101423.38
2023-03-19T17:24:34.056Z,101427.06
2023-03-19T17:29:31.651Z,101429.28
2023-03-19T17:34:33.135Z,101442.97
2023-03-19T17:39:36.234Z,101444.91
2023-03-19T17:44:32.691Z,101449.75
2023-03-19T17:49:31.693Z,101460.66
2023-03-19T17:54:28.303Z,101469.34
2023-03-19T17:59:24.742Z,101475.81
2023-03-19T18:04:22.359Z,101468.66
2023-03-19T18:09:25.537Z,101471.28
2023-03-19T18:14:22.036Z,101482.66
2023-03-19T18:19:24.812Z,101490.50
2023-03-19T18:24:21.242Z,101493.41
2023-03-19T18:29:17.804Z,101488.94
2023-03-19T18:34:16.396Z,101489.06
2023-03-19T18:39:14.653Z,101498.50
2023-03-19T18:44:12.193Z,101496.69
2023-03-19T18:49:26.072Z,101505.34
2023-03-19T18:54:22.582Z,101507.78
2023-03-19T18:59:30.758Z,101510.91
2023-03-19T19:04:29.678Z,101528.41
2023-03-19T19:09:26.432Z,101534.88
2023-03-19T19:14:24.697Z,101547.50
2023-03-19T19:19:23.916Z,101539.03
2023-03-19T19:24:21.338Z,101531.47
2023-03-19T19:29:24.289Z,101550.97
2023-03-19T19:34:21.600Z,101557.56
2023-03-19T19:39:18.884Z,101566.66
2023-03-19T19:44:22.349Z,101579.31
2023-03-19T19:49:19.624Z,101582.25
2023-03-19T19:54:16.036Z,101599.16
2023-03-19T19:59:15.286Z,101611.28
2023-03-19T20:04:14.932Z,101610.84
2023-03-19T20:09:11.339Z,101609.88
2023-03-19T20:14:13.096Z,101619.50
2023-03-19T20:19:17.385Z,101619.34
2023-03-19T20:24:13.775Z,101625.31
2023-03-19T20:29:15.569Z,101629.75
2023-03-19T20:34:22.526Z,101635.25
2023-03-19T20:39:25.709Z,101636.91
2023-03-19T20:44:25.515Z,101638.41
2023-03-19T20:49:22.498Z,101647.75
2023-03-19T20:54:18.930Z,101642.41
2023-03-19T20:59:15.462Z,101647.25
2023-03-19T21:04:18.685Z,101650.00
2023-03-19T21:09:15.098Z,101648.91
2023-03-19T21:14:18.681Z,101663.75
2023-03-19T21:19:15.721Z,101662.94
2023-03-19T21:24:19.219Z,101661.06
2023-03-19T21:29:24.183Z,101670.03
2023-03-19T21:34:20.664Z,101671.72
2023-03-19T21:39:18.125Z,101661.06
2023-03-19T21:44:20.084Z,101664.31
2023-03-19T21:49:17.715Z,101656.19
2023-03-19T21:54:15.788Z,101664.88
2023-03-19T21:59:18.856Z,101663.22
2023-03-19T22:04:15.637Z,101672.16
2023-03-19T22:09:12.673Z,101655.06
2023-03-19T22:14:38.432Z,101657.72
2023-03-19T22:19:34.875Z,101650.09
2023-03-19T22:24:31.259Z,101653.94
2023-03-19T22:29:27.822Z,101647.44
2023-03-19T22:34:27.835Z,101658.63
2023-03-19T22:39:24.450Z,101652.34
2023-03-19T22:44:26.331Z,101659.69
2023-03-19T22:49:24.475Z,101665.88
2023-03-19T22:54:21.070Z,101668.63
2023-03-19T22:59:17.523Z,101653.88
2023-03-19T23:04:21.935Z,101652.22
2023-03-19T23:09:30.619Z,101649.50
2023-03-19T23:14:31.041Z,101644.56
2023-03-19T23:19:31.069Z,101643.16
2023-03-19T23:24:27.793Z,101635.78
2023-03-19T23:29:29.366Z,101627.91
2023-03-19T23:34:26.900Z,101631.94
2023-03-19T23:39:24.485Z,101640.16
2023-03-19T23:44:21.948Z,101640.19
2023-03-19T23:49:29.046Z,101641.25
2023-03-19T23:54:34.517Z,101641.81
2023-03-19T23:59:34.978Z,101642.91
